createdAt,value
2023-01-29T00:00:25.028Z,1029.49
2023-01-29T00:01:28.330Z,1029.54
2023-01-29T00:02:32.048Z,1029.53
2023-01-29T00:04:08.171Z,1029.54
2023-01-29T00:05:34.057Z,1029.57
2023-01-29T00:06:37.540Z,1029.68
2023-01-29T00:08:12.949Z,1029.69
2023-01-29T00:09:16.139Z,1029.70
2023-01-29T00:10:19.476Z,1029.66
2023-01-29T00:11:54.955Z,1029.62
2023-01-29T00:12:58.240Z,1029.62
2023-01-29T00:14:02.496Z,1029.60
2023-01-29T00:15:38.264Z,1029.54
2023-01-29T00:16:41.770Z,1029.49
2023-01-29T00:17:45.515Z,1029.45
2023-01-29T00:19:21.065Z,1029.42
2023-01-29T00:20:25.115Z,1029.38
2023-01-29T00:21:28.445Z,1029.33
2023-01-29T00:23:03.693Z,1029.34
2023-01-29T00:24:07.170Z,1029.33
2023-01-29T00:25:10.508Z,1029.30
2023-01-29T00:26:46.228Z,1029.31
2023-01-29T00:27:49.615Z,1029.29
2023-01-29T00:28:53.058Z,1029.22
2023-01-29T00:30:28.996Z,1029.16
2023-01-29T00:31:32.926Z,1029.13
2023-01-29T00:32:37.152Z,1029.10
2023-01-29T00:34:12.691Z,1029.07
2023-01-29T00:35:15.994Z,1029.06
2023-01-29T00:36:19.262Z,1029.03
2023-01-29T00:37:54.298Z,1029.02
2023-01-29T00:38:57.753Z,1029.01
2023-01-29T00:40:01.421Z,1028.98
2023-01-29T00:41:37.010Z,1028.99
2023-01-29T00:42:40.559Z,1029.00
2023-01-29T00:43:43.812Z,1029.02
2023-01-29T00:45:19.359Z,1029.03
2023-01-29T00:46:23.351Z,1029.03
2023-01-29T00:47:26.649Z,1029.07
2023-01-29T00:49:02.025Z,1029.08
2023-01-29T00:50:05.263Z,1029.08
2023-01-29T00:51:09.152Z,1029.08
2023-01-29T00:52:44.511Z,1029.07
2023-01-29T00:53:47.865Z,1029.07
2023-01-29T00:54:51.396Z,1029.03
2023-01-29T00:56:26.987Z,1029.01
2023-01-29T00:57:30.564Z,1028.97
2023-01-29T00:58:34.059Z,1028.99
2023-01-29T01:00:24.348Z,1028.99
2023-01-29T01:01:28.144Z,1029.00
2023-01-29T01:02:31.701Z,1029.03
2023-01-29T01:04:07.135Z,1029.05
2023-01-29T01:05:10.338Z,1029.08
2023-01-29T01:06:13.977Z,1029.09
2023-01-29T01:07:49.473Z,1029.09
2023-01-29T01:08:52.952Z,1029.09
2023-01-29T01:09:56.397Z,1029.07
2023-01-29T01:11:32.710Z,1029.09
2023-01-29T01:12:36.216Z,1029.08
2023-01-29T01:13:39.515Z,1029.07
2023-01-29T01:15:15.119Z,1029.05
2023-01-29T01:16:18.459Z,1029.06
2023-01-29T01:17:22.291Z,1029.07
2023-01-29T01:18:57.875Z,1028.99
2023-01-29T01:20:02.231Z,1028.98
2023-01-29T01:21:05.959Z,1028.96
2023-01-29T01:22:41.420Z,1028.91
2023-01-29T01:23:44.899Z,1028.92
2023-01-29T01:24:48.357Z,1028.89
2023-01-29T01:26:23.851Z,1028.88
2023-01-29T01:27:27.346Z,1028.85
2023-01-29T01:28:30.873Z,1028.81
2023-01-29T01:30:06.288Z,1028.79
2023-01-29T01:31:10.434Z,1028.80
2023-01-29T01:32:14.479Z,1028.83
2023-01-29T01:33:49.502Z,1028.86
2023-01-29T01:34:52.973Z,1028.85
2023-01-29T01:35:56.394Z,1028.87
2023-01-29T01:37:31.708Z,1028.94
2023-01-29T01:38:35.271Z,1028.92
2023-01-29T01:39:38.543Z,1028.86
2023-01-29T01:41:14.330Z,1028.85
2023-01-29T01:42:17.871Z,1028.88
2023-01-29T01:43:21.135Z,1028.96
2023-01-29T01:44:56.748Z,1029.01
2023-01-29T01:46:00.391Z,1029.03
2023-01-29T01:47:03.959Z,1029.01
2023-01-29T01:48:39.538Z,1029.11
2023-01-29T01:49:42.635Z,1029.11
2023-01-29T01:50:45.780Z,1029.11
2023-01-29T01:52:21.259Z,1029.10
2023-01-29T01:53:24.619Z,1029.08
2023-01-29T01:54:27.911Z,1029.10
2023-01-29T01:56:03.450Z,1029.15
2023-01-29T01:57:07.057Z,1029.16
2023-01-29T01:58:10.498Z,1029.15
2023-01-29T01:59:46.100Z,1029.13
2023-01-29T02:00:23.967Z,1029.14
2023-01-29T02:01:31.155Z,1029.13
2023-01-29T02:02:35.093Z,1029.13
2023-01-29T02:04:10.636Z,1029.11
2023-01-29T02:05:14.093Z,1029.15
2023-01-29T02:06:17.619Z,1029.14
2023-01-29T02:07:52.989Z,1029.12
2023-01-29T02:08:56.237Z,1029.13
2023-01-29T02:09:59.578Z,1029.10
2023-01-29T02:11:35.780Z,1029.08
2023-01-29T02:12:39.216Z,1029.14
2023-01-29T02:13:42.543Z,1029.11
2023-01-29T02:15:18.001Z,1029.11
2023-01-29T02:16:21.315Z,1029.12
2023-01-29T02:17:25.033Z,1029.09
2023-01-29T02:19:00.676Z,1029.13
2023-01-29T02:20:03.993Z,1029.09
2023-01-29T02:21:07.792Z,1029.08
2023-01-29T02:22:43.381Z,1029.12
2023-01-29T02:23:49.941Z,1029.12
2023-01-29T02:24:53.862Z,1029.14
2023-01-29T02:26:29.329Z,1029.17
2023-01-29T02:27:32.720Z,1029.15
2023-01-29T02:28:36.034Z,1029.14
2023-01-29T02:30:11.439Z,1029.13
2023-01-29T02:31:15.596Z,1029.08
2023-01-29T02:32:19.275Z,1029.11
2023-01-29T02:33:54.763Z,1029.08
2023-01-29T02:34:58.142Z,1029.16
2023-01-29T02:36:01.645Z,1029.18
2023-01-29T02:37:37.087Z,1029.22
2023-01-29T02:38:40.480Z,1029.21
2023-01-29T02:39:43.826Z,1029.26
2023-01-29T02:41:19.674Z,1029.25
2023-01-29T02:42:23.136Z,1029.25
2023-01-29T02:43:26.634Z,1029.28
2023-01-29T02:45:01.967Z,1029.30
2023-01-29T02:46:05.582Z,1029.33
2023-01-29T02:47:09.483Z,1029.29
2023-01-29T02:48:45.055Z,1029.30
2023-01-29T02:49:48.473Z,1029.32
2023-01-29T02:50:51.755Z,1029.32
2023-01-29T02:52:27.531Z,1029.31
2023-01-29T02:53:31.069Z,1029.28
2023-01-29T02:54:34.435Z,1029.31
2023-01-29T02:56:10.066Z,1029.29
2023-01-29T02:57:13.396Z,1029.23
2023-01-29T02:58:16.783Z,1029.27
2023-01-29T02:59:52.274Z,1029.20
2023-01-29T03:00:23.833Z,1029.25
2023-01-29T03:01:27.289Z,1029.24
2023-01-29T03:02:30.841Z,1029.20
2023-01-29T03:04:06.411Z,1029.14
2023-01-29T03:05:09.744Z,1029.15
2023-01-29T03:06:12.914Z,1029.15
2023-01-29T03:07:48.684Z,1029.18
2023-01-29T03:08:52.290Z,1029.20
2023-01-29T03:09:55.681Z,1029.13
2023-01-29T03:11:31.209Z,1029.16
2023-01-29T03:12:35.101Z,1029.10
2023-01-29T03:13:38.362Z,1029.10
2023-01-29T03:15:14.024Z,1029.08
2023-01-29T03:16:17.689Z,1029.08
2023-01-29T03:17:21.326Z,1029.05
2023-01-29T03:18:56.637Z,1029.04
2023-01-29T03:19:59.908Z,1028.93
2023-01-29T03:21:04.239Z,1028.92
2023-01-29T03:22:39.711Z,1028.75
2023-01-29T03:23:43.061Z,1028.75
2023-01-29T03:24:46.653Z,1028.73
2023-01-29T03:26:22.379Z,1028.69
2023-01-29T03:27:25.783Z,1028.71
2023-01-29T03:28:29.160Z,1028.68
2023-01-29T03:30:04.563Z,1028.65
2023-01-29T03:31:08.771Z,1028.64
2023-01-29T03:32:12.665Z,1028.66
2023-01-29T03:33:48.605Z,1028.62
2023-01-29T03:34:51.763Z,1028.61
2023-01-29T03:35:55.434Z,1028.59
2023-01-29T03:37:31.084Z,1028.66
2023-01-29T03:38:34.387Z,1028.63
2023-01-29T03:39:37.719Z,1028.63
2023-01-29T03:41:13.721Z,1028.60
2023-01-29T03:42:17.051Z,1028.63
2023-01-29T03:43:20.375Z,1028.58
2023-01-29T03:44:55.776Z,1028.56
2023-01-29T03:45:59.150Z,1028.53
2023-01-29T03:47:02.743Z,1028.51
2023-01-29T03:48:38.280Z,1028.50
2023-01-29T03:49:41.588Z,1028.47
2023-01-29T03:50:44.981Z,1028.47
2023-01-29T03:52:20.289Z,1028.39
2023-01-29T03:53:23.921Z,1028.42
2023-01-29T03:54:27.267Z,1028.38
2023-01-29T03:56:02.876Z,1028.39
2023-01-29T03:57:06.098Z,1028.41
2023-01-29T03:58:09.482Z,1028.41
2023-01-29T03:59:45.011Z,1028.46
2023-01-29T04:00:24.619Z,1028.46
2023-01-29T04:01:27.978Z,1028.42
2023-01-29T04:02:31.693Z,1028.40
2023-01-29T04:04:07.087Z,1028.36
2023-01-29T04:05:10.677Z,1028.40
2023-01-29T04:06:14.093Z,1028.37
2023-01-29T04:07:49.481Z,1028.34
2023-01-29T04:08:52.679Z,1028.36
2023-01-29T04:09:56.031Z,1028.30
2023-01-29T04:11:31.574Z,1028.25
2023-01-29T04:12:34.979Z,1028.26
2023-01-29T04:13:38.205Z,1028.17
2023-01-29T04:15:13.654Z,1028.12
2023-01-29T04:16:16.864Z,1028.10
2023-01-29T04:17:20.540Z,1028.13
2023-01-29T04:18:55.825Z,1028.09
2023-01-29T04:19:59.432Z,1028.10
2023-01-29T04:21:03.357Z,1028.06
2023-01-29T04:22:38.843Z,1028.09
2023-01-29T04:23:42.149Z,1028.10
2023-01-29T04:24:45.632Z,1028.16
2023-01-29T04:26:21.064Z,1028.19
2023-01-29T04:27:24.315Z,1028.17
2023-01-29T04:28:27.386Z,1028.16
2023-01-29T04:30:02.745Z,1028.23
2023-01-29T04:31:06.888Z,1028.24
2023-01-29T04:32:11.222Z,1028.24
2023-01-29T04:33:46.581Z,1028.28
2023-01-29T04:34:49.860Z,1028.21
2023-01-29T04:35:53.570Z,1028.28
2023-01-29T04:37:28.942Z,1028.24
2023-01-29T04:38:32.141Z,1028.25
2023-01-29T04:39:35.556Z,1028.21
2023-01-29T04:41:11.377Z,1028.20
2023-01-29T04:42:14.741Z,1028.17
2023-01-29T04:43:18.045Z,1028.19
2023-01-29T04:44:53.521Z,1028.10
2023-01-29T04:45:56.693Z,1028.08
2023-01-29T04:47:00.124Z,1028.07
2023-01-29T04:48:36.035Z,1028.02
2023-01-29T04:49:39.219Z,1027.99
2023-01-29T04:50:42.257Z,1027.97
2023-01-29T04:52:17.572Z,1027.94
2023-01-29T04:53:21.032Z,1027.96
2023-01-29T04:54:24.135Z,1027.97
2023-01-29T04:55:59.665Z,1027.94
2023-01-29T04:57:02.980Z,1027.97
2023-01-29T04:58:06.289Z,1027.94
2023-01-29T04:59:41.924Z,1027.96
2023-01-29T05:00:24.251Z,1027.96
2023-01-29T05:01:27.850Z,1027.97
2023-01-29T05:02:31.710Z,1027.99
2023-01-29T05:04:07.575Z,1027.99
2023-01-29T05:05:52.802Z,1028.00
2023-01-29T05:06:56.202Z,1027.97
2023-01-29T05:07:59.623Z,1028.01
2023-01-29T05:09:35.432Z,1027.98
2023-01-29T05:10:38.933Z,1027.98
2023-01-29T05:11:42.594Z,1028.03
2023-01-29T05:13:18.197Z,1028.03
2023-01-29T05:14:21.597Z,1028.02
2023-01-29T05:15:25.195Z,1028.02
2023-01-29T05:17:00.879Z,1028.00
2023-01-29T05:18:04.140Z,1027.99
2023-01-29T05:19:07.522Z,1027.99
2023-01-29T05:20:43.128Z,1027.97
2023-01-29T05:21:47.042Z,1027.99
2023-01-29T05:22:50.426Z,1027.96
2023-01-29T05:24:26.081Z,1027.99
2023-01-29T05:25:29.641Z,1028.03
2023-01-29T05:26:32.909Z,1028.05
2023-01-29T05:28:08.551Z,1028.09
2023-01-29T05:29:11.877Z,1028.10
2023-01-29T05:30:15.619Z,1028.16
2023-01-29T05:31:51.858Z,1028.18
2023-01-29T05:32:55.228Z,1028.17
2023-01-29T05:33:58.656Z,1028.17
2023-01-29T05:35:34.511Z,1028.18
2023-01-29T05:36:37.983Z,1028.18
2023-01-29T05:37:41.415Z,1028.12
2023-01-29T05:39:16.997Z,1028.16
2023-01-29T05:40:20.965Z,1028.17
2023-01-29T05:41:24.033Z,1028.17
2023-01-29T05:42:59.500Z,1028.27
2023-01-29T05:44:02.851Z,1028.27
2023-01-29T05:45:06.630Z,1028.26
2023-01-29T05:46:42.259Z,1028.22
2023-01-29T05:47:46.055Z,1028.20
2023-01-29T05:48:49.214Z,1028.17
2023-01-29T05:50:25.608Z,1028.11
2023-01-29T05:51:29.194Z,1028.06
2023-01-29T05:52:32.508Z,1028.07
2023-01-29T05:54:07.823Z,1028.04
2023-01-29T05:55:11.201Z,1028.05
2023-01-29T05:56:14.494Z,1027.92
2023-01-29T05:57:49.859Z,1027.92
2023-01-29T05:58:53.257Z,1027.86
2023-01-29T05:59:56.681Z,1027.84
2023-01-29T06:00:24.113Z,1027.84
2023-01-29T06:01:27.749Z,1027.84
2023-01-29T06:02:31.466Z,1027.85
2023-01-29T06:04:07.423Z,1027.84
2023-01-29T06:05:10.974Z,1027.82
2023-01-29T06:06:14.357Z,1027.80
2023-01-29T06:07:49.992Z,1027.81
2023-01-29T06:08:53.101Z,1027.76
2023-01-29T06:09:56.405Z,1027.76
2023-01-29T06:11:32.050Z,1027.74
2023-01-29T06:12:35.654Z,1027.72
2023-01-29T06:13:38.972Z,1027.70
2023-01-29T06:15:14.438Z,1027.71
2023-01-29T06:16:18.116Z,1027.69
2023-01-29T06:17:22.331Z,1027.74
2023-01-29T06:18:57.865Z,1027.72
2023-01-29T06:20:01.334Z,1027.69
2023-01-29T06:21:05.167Z,1027.69
2023-01-29T06:22:44.129Z,1027.64
2023-01-29T06:23:47.341Z,1027.60
2023-01-29T06:24:50.823Z,1027.60
2023-01-29T06:26:26.257Z,1027.60
2023-01-29T06:27:29.483Z,1027.64
2023-01-29T06:28:33.096Z,1027.68
2023-01-29T06:30:08.355Z,1027.68
2023-01-29T06:31:44.088Z,1027.68
2023-01-29T06:32:48.441Z,1027.61
2023-01-29T06:34:23.844Z,1027.57
2023-01-29T06:35:27.290Z,1027.58
2023-01-29T06:36:30.384Z,1027.61
2023-01-29T06:38:06.039Z,1027.59
2023-01-29T06:39:09.089Z,1027.65
2023-01-29T06:40:12.445Z,1027.59
2023-01-29T06:41:48.380Z,1027.65
2023-01-29T06:42:51.953Z,1027.63
2023-01-29T06:43:55.570Z,1027.58
2023-01-29T06:45:31.409Z,1027.60
2023-01-29T06:46:35.140Z,1027.59
2023-01-29T06:47:38.298Z,1027.58
2023-01-29T06:49:13.993Z,1027.51
2023-01-29T06:50:17.603Z,1027.52
2023-01-29T06:51:21.189Z,1027.50
2023-01-29T06:52:56.628Z,1027.45
2023-01-29T06:54:00.006Z,1027.46
2023-01-29T06:55:03.685Z,1027.47
2023-01-29T06:56:38.899Z,1027.48
2023-01-29T06:57:42.446Z,1027.46
2023-01-29T06:58:45.811Z,1027.43
2023-01-29T07:00:24.779Z,1027.45
2023-01-29T07:01:47.447Z,1027.39
2023-01-29T07:02:51.210Z,1027.47
2023-01-29T07:04:26.695Z,1027.53
2023-01-29T07:05:29.992Z,1027.54
2023-01-29T07:06:33.591Z,1027.55
2023-01-29T07:08:09.264Z,1027.49
2023-01-29T07:09:12.863Z,1027.51
2023-01-29T07:10:16.463Z,1027.48
2023-01-29T07:11:52.334Z,1027.52
2023-01-29T07:12:55.811Z,1027.52
2023-01-29T07:13:59.360Z,1027.46
2023-01-29T07:15:37.012Z,1027.47
2023-01-29T07:16:41.109Z,1027.47
2023-01-29T07:17:44.400Z,1027.47
2023-01-29T07:19:19.875Z,1027.55
2023-01-29T07:20:23.451Z,1027.59
2023-01-29T07:21:26.788Z,1027.62
2023-01-29T07:23:02.157Z,1027.67
2023-01-29T07:24:05.917Z,1027.70
2023-01-29T07:25:09.357Z,1027.66
2023-01-29T07:26:44.976Z,1027.77
2023-01-29T07:27:48.249Z,1027.69
2023-01-29T07:28:53.173Z,1027.66
2023-01-29T07:30:29.138Z,1027.66
2023-01-29T07:31:32.996Z,1027.68
2023-01-29T07:32:37.167Z,1027.68
2023-01-29T07:34:12.489Z,1027.70
2023-01-29T07:35:15.782Z,1027.67
2023-01-29T07:36:19.270Z,1027.67
2023-01-29T07:37:54.588Z,1027.63
2023-01-29T07:38:57.993Z,1027.59
2023-01-29T07:40:01.499Z,1027.53
2023-01-29T07:41:37.132Z,1027.45
2023-01-29T07:42:40.655Z,1027.46
2023-01-29T07:43:43.750Z,1027.39
2023-01-29T07:45:19.204Z,1027.35
2023-01-29T07:46:22.986Z,1027.39
2023-01-29T07:47:28.529Z,1027.39
2023-01-29T07:49:03.937Z,1027.37
2023-01-29T07:50:07.379Z,1027.37
2023-01-29T07:51:11.083Z,1027.37
2023-01-29T07:52:46.428Z,1027.32
2023-01-29T07:53:49.644Z,1027.34
2023-01-29T07:54:53.098Z,1027.32
2023-01-29T07:56:28.769Z,1027.36
2023-01-29T07:57:32.019Z,1027.35
2023-01-29T07:58:36.753Z,1027.39
2023-01-29T08:00:24.382Z,1027.35
2023-01-29T08:01:27.958Z,1027.31
2023-01-29T08:02:31.575Z,1027.31
2023-01-29T08:04:07.416Z,1027.22
2023-01-29T08:05:10.808Z,1027.21
2023-01-29T08:06:14.413Z,1027.18
2023-01-29T08:08:06.239Z,1027.12
2023-01-29T08:09:10.524Z,1027.08
2023-01-29T08:10:13.758Z,1027.09
2023-01-29T08:11:49.712Z,1027.01
2023-01-29T08:12:53.089Z,1027.07
2023-01-29T08:13:56.391Z,1027.07
2023-01-29T08:15:31.743Z,1027.08
2023-01-29T08:25:14.434Z,1027.01
2023-01-29T08:26:18.752Z,1027.00
2023-01-29T08:27:54.195Z,1026.92
2023-01-29T08:28:57.384Z,1026.91
2023-01-29T08:30:00.710Z,1026.96
2023-01-29T08:31:37.714Z,1026.88
2023-01-29T08:32:41.220Z,1026.85
2023-01-29T08:33:50.940Z,1026.82
2023-01-29T08:35:26.994Z,1026.80
2023-01-29T08:36:30.131Z,1026.79
2023-01-29T08:37:33.372Z,1026.79
2023-01-29T08:39:08.844Z,1026.77
2023-01-29T08:40:12.408Z,1026.81
2023-01-29T08:41:16.130Z,1026.85
2023-01-29T08:42:51.527Z,1026.90
2023-01-29T08:43:57.525Z,1026.91
2023-01-29T08:45:00.594Z,1026.90
2023-01-29T08:46:36.107Z,1026.93
2023-01-29T08:47:40.988Z,1026.87
2023-01-29T08:48:44.480Z,1026.86
2023-01-29T08:50:20.130Z,1026.88
2023-01-29T08:51:23.686Z,1026.92
2023-01-29T08:52:27.458Z,1026.92
2023-01-29T08:54:03.050Z,1026.90
2023-01-29T08:55:06.278Z,1026.92
2023-01-29T08:56:10.007Z,1026.90
2023-01-29T08:57:45.654Z,1026.88
2023-01-29T08:58:48.947Z,1026.84
2023-01-29T08:59:52.357Z,1026.88
2023-01-29T09:00:24.299Z,1026.87
2023-01-29T09:01:28.003Z,1026.86
2023-01-29T09:02:31.578Z,1026.88
2023-01-29T09:04:07.084Z,1026.82
2023-01-29T09:05:10.563Z,1026.82
2023-01-29T09:06:14.431Z,1026.78
2023-01-29T09:07:49.990Z,1026.78
2023-01-29T09:08:53.509Z,1026.78
2023-01-29T09:09:56.896Z,1026.73
2023-01-29T09:11:32.063Z,1026.75
2023-01-29T09:12:35.499Z,1026.78
2023-01-29T09:13:38.766Z,1026.75
2023-01-29T09:15:14.118Z,1026.67
2023-01-29T09:16:17.790Z,1026.67
2023-01-29T09:17:21.473Z,1026.65
2023-01-29T09:18:56.922Z,1026.66
2023-01-29T09:20:00.240Z,1026.63
2023-01-29T09:21:03.852Z,1026.67
2023-01-29T09:22:39.175Z,1026.72
2023-01-29T09:23:42.492Z,1026.74
2023-01-29T09:24:45.921Z,1026.82
2023-01-29T09:26:21.647Z,1026.84
2023-01-29T09:27:25.152Z,1026.86
2023-01-29T09:28:28.588Z,1026.85
2023-01-29T09:30:03.983Z,1026.84
2023-01-29T09:31:07.872Z,1026.89
2023-01-29T09:32:12.869Z,1026.84
2023-01-29T09:34:20.085Z,1026.80
2023-01-29T09:35:23.869Z,1026.82
2023-01-29T09:36:27.547Z,1026.77
2023-01-29T09:38:02.924Z,1026.85
2023-01-29T09:39:06.343Z,1026.85
2023-01-29T09:40:09.559Z,1026.82
2023-01-29T09:41:44.819Z,1026.86
2023-01-29T09:42:48.417Z,1026.84
2023-01-29T09:43:52.069Z,1026.86
2023-01-29T09:45:28.447Z,1026.83
2023-01-29T09:46:32.038Z,1026.86
2023-01-29T09:47:35.540Z,1026.83
2023-01-29T09:49:10.983Z,1026.80
2023-01-29T09:50:14.466Z,1026.78
2023-01-29T09:51:18.355Z,1026.76
2023-01-29T09:52:53.772Z,1026.76
2023-01-29T09:53:57.157Z,1026.78
2023-01-29T09:55:00.627Z,1026.76
2023-01-29T09:56:36.561Z,1026.74
2023-01-29T09:57:39.901Z,1026.79
2023-01-29T09:58:43.425Z,1026.79
2023-01-29T10:00:23.487Z,1026.77
2023-01-29T10:01:27.610Z,1026.71
2023-01-29T10:02:31.657Z,1026.70
2023-01-29T10:04:07.107Z,1026.70
2023-01-29T10:05:10.564Z,1026.70
2023-01-29T10:06:14.928Z,1026.71
2023-01-29T10:07:50.698Z,1026.70
2023-01-29T10:08:54.428Z,1026.68
2023-01-29T10:09:58.070Z,1026.69
2023-01-29T10:11:33.573Z,1026.69
2023-01-29T10:12:37.098Z,1026.69
2023-01-29T10:13:40.921Z,1026.66
2023-01-29T10:15:17.146Z,1026.61
2023-01-29T10:16:20.583Z,1026.59
2023-01-29T10:17:24.626Z,1026.60
2023-01-29T10:19:00.659Z,1026.51
2023-01-29T10:20:04.135Z,1026.50
2023-01-29T10:21:07.726Z,1026.46
2023-01-29T10:22:43.367Z,1026.47
2023-01-29T10:23:47.088Z,1026.47
2023-01-29T10:24:50.569Z,1026.45
2023-01-29T10:26:26.432Z,1026.47
2023-01-29T10:27:30.376Z,1026.47
2023-01-29T10:28:33.873Z,1026.42
2023-01-29T10:30:10.659Z,1026.38
2023-01-29T10:31:14.727Z,1026.35
2023-01-29T10:32:19.386Z,1026.32
2023-01-29T10:34:12.110Z,1026.32
2023-01-29T10:35:15.979Z,1026.33
2023-01-29T10:36:19.538Z,1026.31
2023-01-29T10:37:55.467Z,1026.30
2023-01-29T10:38:59.035Z,1026.29
2023-01-29T10:40:02.480Z,1026.28
2023-01-29T10:41:38.224Z,1026.31
2023-01-29T10:42:41.579Z,1026.32
2023-01-29T10:43:45.006Z,1026.20
2023-01-29T10:45:21.599Z,1026.21
2023-01-29T10:46:25.046Z,1026.17
2023-01-29T10:47:30.312Z,1026.20
2023-01-29T10:49:06.589Z,1026.19
2023-01-29T10:50:10.186Z,1026.16
2023-01-29T10:51:13.996Z,1026.14
2023-01-29T10:52:49.643Z,1026.15
2023-01-29T10:53:55.326Z,1026.20
2023-01-29T10:54:59.042Z,1026.12
2023-01-29T10:56:35.445Z,1026.14
2023-01-29T10:57:38.882Z,1026.10
2023-01-29T10:58:42.505Z,1026.12
2023-01-29T11:00:24.201Z,1026.02
2023-01-29T11:01:28.376Z,1026.02
2023-01-29T11:02:32.529Z,1026.00
2023-01-29T11:04:24.276Z,1025.94
2023-01-29T11:05:28.565Z,1025.89
2023-01-29T11:06:32.536Z,1025.95
2023-01-29T11:08:07.987Z,1025.89
2023-01-29T11:09:11.655Z,1025.87
2023-01-29T11:10:15.567Z,1025.84
2023-01-29T11:11:51.577Z,1025.78
2023-01-29T11:12:55.306Z,1025.82
2023-01-29T11:13:58.640Z,1025.72
2023-01-29T11:15:34.540Z,1025.79
2023-01-29T11:16:38.425Z,1025.76
2023-01-29T11:17:42.822Z,1025.76
2023-01-29T11:19:18.576Z,1025.73
2023-01-29T11:20:22.630Z,1025.73
2023-01-29T11:21:26.231Z,1025.66
2023-01-29T11:23:01.801Z,1025.63
2023-01-29T11:24:05.737Z,1025.62
2023-01-29T11:25:09.208Z,1025.63
2023-01-29T11:26:45.310Z,1025.61
2023-01-29T11:27:48.917Z,1025.62
2023-01-29T11:28:52.349Z,1025.61
2023-01-29T11:30:29.238Z,1025.62
2023-01-29T11:31:33.654Z,1025.58
2023-01-29T11:32:37.563Z,1025.58
2023-01-29T11:34:13.179Z,1025.56
2023-01-29T11:35:16.796Z,1025.54
2023-01-29T11:36:20.509Z,1025.53
2023-01-29T11:37:58.573Z,1025.55
2023-01-29T11:39:02.061Z,1025.48
2023-01-29T11:40:05.540Z,1025.46
2023-01-29T11:41:42.383Z,1025.50
2023-01-29T11:42:45.983Z,1025.45
2023-01-29T11:43:49.595Z,1025.45
2023-01-29T11:45:25.090Z,1025.40
2023-01-29T11:46:28.838Z,1025.46
2023-01-29T11:47:32.340Z,1025.42
2023-01-29T11:49:26.495Z,1025.39
2023-01-29T11:50:30.719Z,1025.37
2023-01-29T11:51:34.565Z,1025.37
2023-01-29T11:53:10.332Z,1025.34
2023-01-29T11:54:13.801Z,1025.27
2023-01-29T11:55:17.569Z,1025.33
2023-01-29T11:57:09.749Z,1025.29
2023-01-29T11:58:13.396Z,1025.25
2023-01-29T11:59:16.920Z,1025.19
2023-01-29T12:00:24.296Z,1025.22
2023-01-29T12:01:27.793Z,1025.23
2023-01-29T12:02:31.333Z,1025.17
2023-01-29T12:04:09.926Z,1025.13
2023-01-29T12:05:13.600Z,1025.13
2023-01-29T12:06:17.245Z,1025.11
2023-01-29T12:07:53.224Z,1025.10
2023-01-29T12:08:56.809Z,1025.12
2023-01-29T12:10:03.409Z,1025.13
2023-01-29T12:11:39.407Z,1025.07
2023-01-29T12:12:42.981Z,1024.99
2023-01-29T12:13:46.650Z,1024.96
2023-01-29T12:15:22.213Z,1024.96
2023-01-29T12:16:26.287Z,1024.95
2023-01-29T12:17:30.243Z,1024.92
2023-01-29T12:19:06.220Z,1024.88
2023-01-29T12:20:09.642Z,1024.85
2023-01-29T12:21:13.780Z,1024.86
2023-01-29T12:22:50.676Z,1024.80
2023-01-29T12:23:54.376Z,1024.80
2023-01-29T12:24:57.844Z,1024.79
2023-01-29T12:26:33.878Z,1024.73
2023-01-29T12:27:37.595Z,1024.70
2023-01-29T12:28:41.143Z,1024.64
2023-01-29T12:30:17.284Z,1024.63
2023-01-29T12:31:21.255Z,1024.63
2023-01-29T12:32:24.869Z,1024.62
2023-01-29T12:34:00.619Z,1024.59
2023-01-29T12:35:04.062Z,1024.58
2023-01-29T12:36:09.847Z,1024.57
2023-01-29T12:37:46.480Z,1024.50
2023-01-29T12:38:50.267Z,1024.51
2023-01-29T12:39:53.977Z,1024.50
2023-01-29T12:41:29.643Z,1024.50
2023-01-29T12:42:33.251Z,1024.41
2023-01-29T12:43:36.721Z,1024.44
2023-01-29T12:45:12.605Z,1024.35
2023-01-29T12:46:15.947Z,1024.33
2023-01-29T12:47:22.744Z,1024.37
2023-01-29T12:48:58.402Z,1024.36
2023-01-29T12:50:02.015Z,1024.26
2023-01-29T12:51:05.744Z,1024.29
2023-01-29T12:52:41.581Z,1024.16
2023-01-29T12:53:44.784Z,1024.21
2023-01-29T12:54:48.318Z,1024.14
2023-01-29T12:56:24.179Z,1024.13
2023-01-29T12:57:27.628Z,1024.13
2023-01-29T12:58:31.132Z,1024.16
2023-01-29T13:00:23.948Z,1024.07
2023-01-29T13:01:28.041Z,1024.02
2023-01-29T13:02:31.395Z,1024.03
2023-01-29T13:04:07.410Z,1023.95
2023-01-29T13:05:10.824Z,1023.90
2023-01-29T13:06:14.442Z,1023.91
2023-01-29T13:07:50.482Z,1023.87
2023-01-29T13:08:53.953Z,1023.90
2023-01-29T13:09:57.673Z,1023.89
2023-01-29T13:11:34.347Z,1023.77
2023-01-29T13:12:38.038Z,1023.78
2023-01-29T13:13:41.612Z,1023.79
2023-01-29T13:15:18.759Z,1023.76
2023-01-29T13:16:22.619Z,1023.71
2023-01-29T13:17:26.537Z,1023.71
2023-01-29T13:19:02.292Z,1023.71
2023-01-29T13:20:05.855Z,1023.64
2023-01-29T13:21:09.885Z,1023.64
2023-01-29T13:22:45.698Z,1023.65
2023-01-29T13:23:49.244Z,1023.55
2023-01-29T13:25:09.205Z,1023.55
2023-01-29T13:26:45.063Z,1023.52
2023-01-29T13:27:48.787Z,1023.47
2023-01-29T13:28:52.207Z,1023.48
2023-01-29T13:30:28.386Z,1023.51
2023-01-29T13:31:32.168Z,1023.47
2023-01-29T13:32:35.859Z,1023.43
2023-01-29T13:34:13.821Z,1023.46
2023-01-29T13:35:17.793Z,1023.38
2023-01-29T13:36:21.330Z,1023.39
2023-01-29T13:37:57.241Z,1023.35
2023-01-29T13:39:00.779Z,1023.36
2023-01-29T13:40:04.545Z,1023.35
2023-01-29T13:41:40.064Z,1023.33
2023-01-29T13:42:43.815Z,1023.31
2023-01-29T13:43:47.528Z,1023.28
2023-01-29T13:45:23.991Z,1023.28
2023-01-29T13:46:28.137Z,1023.25
2023-01-29T13:47:31.708Z,1023.25
2023-01-29T13:49:07.374Z,1023.22
2023-01-29T13:50:13.362Z,1023.26
2023-01-29T13:51:16.706Z,1023.23
2023-01-29T13:52:52.277Z,1023.19
2023-01-29T13:53:55.571Z,1023.21
2023-01-29T13:54:59.278Z,1023.21
2023-01-29T13:56:35.579Z,1023.19
2023-01-29T13:57:39.131Z,1023.15
2023-01-29T13:58:43.079Z,1023.17
2023-01-29T14:00:24.241Z,1023.15
2023-01-29T14:01:28.125Z,1023.15
2023-01-29T14:02:31.883Z,1023.13
2023-01-29T14:04:16.907Z,1023.06
2023-01-29T14:05:21.137Z,1023.05
2023-01-29T14:06:24.431Z,1023.05
2023-01-29T14:08:00.315Z,1022.95
2023-01-29T14:09:03.713Z,1022.94
2023-01-29T14:10:07.463Z,1022.90
2023-01-29T14:11:44.555Z,1022.89
2023-01-29T14:12:48.211Z,1022.90
2023-01-29T14:13:51.721Z,1022.88
2023-01-29T14:15:31.763Z,1022.82
2023-01-29T14:16:35.619Z,1022.81
2023-01-29T14:17:39.447Z,1022.81
2023-01-29T14:19:15.118Z,1022.74
2023-01-29T14:20:18.571Z,1022.78
2023-01-29T14:21:37.960Z,1022.77
2023-01-29T14:23:13.809Z,1022.79
2023-01-29T14:24:17.288Z,1022.78
2023-01-29T14:25:21.641Z,1022.72
2023-01-29T14:26:57.541Z,1022.76
2023-01-29T14:28:01.141Z,1022.74
2023-01-29T14:29:04.920Z,1022.67
2023-01-29T14:30:54.283Z,1022.64
2023-01-29T14:31:58.747Z,1022.68
2023-01-29T14:33:02.380Z,1022.70
2023-01-29T14:34:41.292Z,1022.68
2023-01-29T14:35:44.825Z,1022.67
2023-01-29T14:36:48.412Z,1022.77
2023-01-29T14:38:24.004Z,1022.68
2023-01-29T14:39:27.498Z,1022.68
2023-01-29T14:40:30.998Z,1022.72
2023-01-29T14:42:06.620Z,1022.72
2023-01-29T14:43:10.121Z,1022.69
2023-01-29T14:44:13.729Z,1022.68
2023-01-29T14:45:49.585Z,1022.73
2023-01-29T14:46:53.594Z,1022.70
2023-01-29T14:47:57.033Z,1022.71
2023-01-29T14:49:32.665Z,1022.68
2023-01-29T14:50:36.336Z,1022.71
2023-01-29T14:51:40.054Z,1022.68
2023-01-29T14:53:15.773Z,1022.70
2023-01-29T14:54:19.254Z,1022.65
2023-01-29T14:55:23.597Z,1022.61
2023-01-29T14:56:59.312Z,1022.60
2023-01-29T14:58:02.996Z,1022.63
2023-01-29T14:59:08.624Z,1022.55
2023-01-29T15:00:23.972Z,1022.53
2023-01-29T15:01:28.247Z,1022.49
2023-01-29T15:02:32.151Z,1022.52
2023-01-29T15:04:18.559Z,1022.43
2023-01-29T15:05:22.635Z,1022.45
2023-01-29T15:06:26.168Z,1022.44
2023-01-29T15:08:02.229Z,1022.44